Time;durP1;ratioP1;P1;durP2;ratioP2;P2;SDS_P1;SDS_P2;PMS_P1;PMS_P2;Temp;Humidity;BMP_temperature;BMP_pressure;BME280_temperature;BME280_humidity;BME280_pressure;Samples;Min_cycle;Max_cycle;Signal;HPM_P1;HPM_P2
2022/04/04 00:00:38;;;;;;;6.72;5.20;;;;;;;1.19;73.30;99707.63;4964431;28;20401;-51
2022/04/04 00:03:04;;;;;;;8.35;5.90;;;;;;;1.15;73.61;99711.59;4965077;28;20035;-52
2022/04/04 00:05:29;;;;;;;7.32;5.22;;;;;;;1.14;73.72;99715.25;4962474;28;20097;-52
2022/04/04 00:07:54;;;;;;;7.28;5.32;;;;;;;1.14;74.69;99702.84;4965197;28;20042;-52
2022/04/04 00:10:20;;;;;;;7.47;6.05;;;;;;;1.14;75.10;99702.03;4955319;28;20054;-54
2022/04/04 00:12:45;;;;;;;8.88;6.00;;;;;;;1.01;75.82;99702.56;4962548;28;20031;-52
2022/04/04 00:15:11;;;;;;;8.38;5.68;;;;;;;0.99;75.27;99697.44;4968359;28;20039;-53
2022/04/04 00:17:36;;;;;;;8.25;6.30;;;;;;;1.04;76.06;99686.38;4969984;28;20108;-53
2022/04/04 00:20:03;;;;;;;7.20;5.45;;;;;;;0.97;74.87;99690.69;4961827;28;20035;-50
2022/04/04 00:22:28;;;;;;;9.02;6.15;;;;;;;0.90;74.76;99690.56;4970172;28;20066;-53
2022/04/04 00:24:55;;;;;;;8.20;6.03;;;;;;;0.89;74.57;99688.91;4964573;28;20038;-52
2022/04/04 00:27:20;;;;;;;12.98;6.88;;;;;;;0.84;75.16;99684.13;4960766;28;20649;-52
2022/04/04 00:29:46;;;;;;;11.27;6.60;;;;;;;0.85;76.41;99682.34;4959606;28;20031;-53
2022/04/04 00:32:11;;;;;;;8.93;6.35;;;;;;;0.84;76.33;99678.03;4965388;28;20042;-52
2022/04/04 00:34:37;;;;;;;8.15;5.72;;;;;;;0.76;76.03;99678.88;4959539;28;20031;-54
2022/04/04 00:37:03;;;;;;;8.13;6.13;;;;;;;0.74;76.43;99674.75;4962143;28;20334;-53
2022/04/04 00:39:28;;;;;;;9.25;6.65;;;;;;;0.72;76.46;99663.53;4960368;28;20496;-52
2022/04/04 00:41:54;;;;;;;11.45;6.53;;;;;;;0.58;76.99;99668.50;4950885;28;20046;-50
2022/04/04 00:44:19;;;;;;;8.73;6.18;;;;;;;0.69;79.71;99674.44;4969821;28;20031;-53
2022/04/04 00:46:45;;;;;;;9.25;6.45;;;;;;;0.73;79.00;99673.13;4969073;28;20043;-52
2022/04/04 00:49:10;;;;;;;8.82;6.22;;;;;;;0.50;77.62;99663.25;4968724;28;20039;-52
2022/04/04 00:51:36;;;;;;;10.68;6.45;;;;;;;0.47;77.51;99666.22;4964980;28;20557;-53
2022/04/04 00:54:02;;;;;;;11.85;6.93;;;;;;;0.34;78.22;99668.53;4966101;28;20038;-54
2022/04/04 00:56:27;;;;;;;8.60;6.22;;;;;;;0.29;78.60;99665.56;4967344;28;20150;-51
2022/04/04 00:58:53;;;;;;;9.13;6.85;;;;;;;0.12;78.98;99664.72;4963849;28;20462;-53
2022/04/04 01:01:19;;;;;;;7.40;4.82;;;;;;;0.07;79.09;99667.03;4968286;28;20134;-53
2022/04/04 01:03:44;;;;;;;11.80;7.53;;;;;;;0.06;79.11;99660.13;4969113;28;20540;-53
2022/04/04 01:06:09;;;;;;;10.15;7.32;;;;;;;-0.05;78.99;99659.47;4968573;28;20090;-51
2022/04/04 01:08:36;;;;;;;10.15;7.47;;;;;;;-0.15;79.47;99657.94;4966539;28;20362;-50
2022/04/04 01:11:01;;;;;;;14.02;7.93;;;;;;;-0.21;79.74;99659.44;4952819;28;20042;-52
2022/04/04 01:13:27;;;;;;;10.27;7.25;;;;;;;-0.20;79.53;99654.97;4970112;28;20356;-52
2022/04/04 01:15:52;;;;;;;10.30;8.00;;;;;;;-0.33;79.98;99656.28;4963857;28;20043;-51
2022/04/04 01:18:18;;;;;;;12.43;8.48;;;;;;;-0.29;79.93;99651.53;4963088;28;20039;-53
2022/04/04 01:20:43;;;;;;;9.82;7.65;;;;;;;-0.22;78.62;99647.25;4958264;28;20046;-50
2022/04/04 01:23:08;;;;;;;10.15;7.75;;;;;;;-0.19;77.98;99640.84;4961776;28;20058;-50
2022/04/04 01:25:37;;;;;;;11.38;8.32;;;;;;;-0.18;77.72;99637.22;4951269;28;20050;-52
2022/04/04 01:28:03;;;;;;;12.45;8.07;;;;;;;-0.22;77.72;99642.00;4968642;28;20084;-52
2022/04/04 01:30:29;;;;;;;7.85;5.82;;;;;;;-0.33;77.70;99635.19;4959808;28;20047;-53
2022/04/04 01:32:54;;;;;;;11.93;7.55;;;;;;;-0.43;78.29;99630.06;4963308;28;20030;-53
2022/04/04 01:35:20;;;;;;;9.68;7.13;;;;;;;-0.48;77.94;99636.81;4960612;28;20048;-50
2022/04/04 01:37:46;;;;;;;11.63;7.85;;;;;;;-0.52;77.57;99630.25;4963212;28;20081;-51
2022/04/04 01:40:12;;;;;;;11.23;7.80;;;;;;;-0.49;77.32;99622.84;4965856;28;20432;-50
2022/04/04 01:42:37;;;;;;;9.13;7.13;;;;;;;-0.51;76.97;99621.34;4969936;28;20110;-50
2022/04/04 01:45:07;;;;;;;9.38;6.70;;;;;;;-0.66;77.96;99614.06;4963618;28;20035;-52
2022/04/04 01:47:32;;;;;;;10.50;8.07;;;;;;;-0.85;78.77;99618.78;4969946;28;20031;-53
2022/04/04 01:49:58;;;;;;;10.10;7.57;;;;;;;-0.98;79.44;99606.88;4960857;28;20049;-53
2022/04/04 01:52:23;;;;;;;12.07;9.05;;;;;;;-1.01;79.50;99598.50;4964424;28;20047;-52
2022/04/04 01:54:49;;;;;;;13.60;8.43;;;;;;;-1.04;79.71;99604.91;4967716;28;20039;-53
2022/04/04 01:57:17;;;;;;;15.25;9.52;;;;;;;-1.09;79.58;99597.47;4968749;28;20417;-53
2022/04/04 01:59:43;;;;;;;11.20;8.30;;;;;;;-1.05;79.31;99603.25;4962639;28;20042;-51
2022/04/04 02:02:08;;;;;;;8.20;6.72;;;;;;;-1.09;79.18;99600.13;4968492;28;20043;-50
2022/04/04 02:04:34;;;;;;;12.77;8.35;;;;;;;-1.12;79.12;99600.44;4960534;28;20035;-53
2022/04/04 02:06:59;;;;;;;7.35;5.18;;;;;;;-1.16;78.94;99599.09;4962961;28;20077;-53
2022/04/04 02:09:25;;;;;;;12.23;8.32;;;;;;;-1.19;79.40;99596.78;4968686;28;20035;-51
2022/04/04 02:11:50;;;;;;;9.52;7.30;;;;;;;-1.17;78.72;99592.19;4969534;28;20037;-51
2022/04/04 02:14:16;;;;;;;11.57;8.05;;;;;;;-1.41;79.76;99582.38;4962476;28;20030;-50
2022/04/04 02:16:42;;;;;;;11.70;8.60;;;;;;;-1.43;79.97;99594.84;4961912;28;20536;-51
2022/04/04 02:19:09;;;;;;;7.90;6.38;;;;;;;-1.41;79.69;99581.56;4959879;28;20039;-50
2022/04/04 02:21:35;;;;;;;9.20;6.35;;;;;;;-1.42;79.63;99590.41;4962160;28;20405;-53
2022/04/04 02:24:01;;;;;;;15.73;7.63;;;;;;;-1.43;79.71;99578.25;4955124;28;20034;-54
2022/04/04 02:26:26;;;;;;;10.35;8.38;;;;;;;-1.46;79.30;99576.75;4967839;28;20669;-51
2022/04/04 02:29:05;;;;;;;9.52;6.43;;;;;;;-1.46;79.37;99575.94;5048520;28;20397;-50
2022/04/04 02:31:31;;;;;;;12.15;8.43;;;;;;;-1.46;79.85;99574.13;5011531;28;20050;-53
2022/04/04 02:33:56;;;;;;;10.38;7.97;;;;;;;-1.49;79.40;99574.44;4986051;28;20049;-52
2022/04/04 02:36:22;;;;;;;9.85;7.00;;;;;;;-1.45;78.82;99573.13;5002158;28;20058;-51
2022/04/04 02:38:48;;;;;;;11.35;8.43;;;;;;;-1.54;79.28;99572.28;5009543;28;20693;-52
2022/04/04 02:41:13;;;;;;;11.40;9.32;;;;;;;-1.59;79.72;99577.19;5011569;28;20046;-49
2022/04/04 02:43:39;;;;;;;8.63;6.78;;;;;;;-1.60;79.48;99570.28;5005062;28;20030;-49
2022/04/04 02:46:05;;;;;;;10.82;8.85;;;;;;;-1.58;79.03;99568.31;5004717;28;20042;-50
2022/04/04 02:48:30;;;;;;;13.15;9.20;;;;;;;-1.60;79.36;99562.41;5005075;28;20025;-52
2022/04/04 02:50:55;;;;;;;6.60;5.82;;;;;;;-1.56;79.12;99562.91;5004756;28;20112;-52
2022/04/04 02:53:21;;;;;;;7.55;5.45;;;;;;;-1.58;78.75;99556.97;5007910;28;20042;-51
2022/04/04 02:58:30;;;;;;;12.02;8.85;;;;;;;-1.75;79.94;99551.63;5009096;28;20075;-53
2022/04/04 03:00:56;;;;;;;15.48;9.50;;;;;;;-1.75;79.97;99549.00;5012936;28;20408;-48
2022/04/04 03:03:21;;;;;;;10.38;5.50;;;;;;;-1.64;79.61;99545.28;5010314;28;20038;-50
2022/04/04 03:05:46;;;;;;;11.85;8.85;;;;;;;-1.75;80.40;99537.66;5005718;28;20065;-49
2022/04/04 03:08:12;;;;;;;13.20;10.20;;;;;;;-1.78;80.53;99530.91;5013232;28;20037;-51
2022/04/04 03:10:38;;;;;;;13.52;9.88;;;;;;;-1.79;80.01;99531.09;5005227;28;20072;-52
2022/04/04 03:13:05;;;;;;;13.20;9.50;;;;;;;-1.70;79.46;99529.31;5012124;28;20068;-52
2022/04/04 03:15:31;;;;;;;11.40;9.00;;;;;;;-1.74;79.69;99529.63;5009481;28;20077;-52
2022/04/04 03:17:56;;;;;;;11.48;7.90;;;;;;;-1.77;80.00;99529.13;5010777;28;20034;-53
2022/04/04 03:20:23;;;;;;;7.72;5.90;;;;;;;-1.80;80.07;99532.88;5007165;28;20050;-50
2022/04/04 03:22:50;;;;;;;10.43;7.53;;;;;;;-1.78;80.12;99524.84;5018097;28;20121;-54
2022/04/04 03:25:15;;;;;;;12.15;8.73;;;;;;;-1.81;80.26;99512.81;5023719;28;20034;-50
2022/04/04 03:27:41;;;;;;;14.27;10.38;;;;;;;-1.76;80.11;99520.25;5008022;28;20073;-51
2022/04/04 03:30:10;;;;;;;12.07;9.85;;;;;;;-1.76;79.87;99505.31;5003249;28;20492;-53
2022/04/04 03:32:36;;;;;;;11.70;9.05;;;;;;;-1.77;79.87;99511.53;5004184;28;20040;-53
2022/04/04 03:35:01;;;;;;;14.18;11.48;;;;;;;-1.83;80.40;99501.66;5012476;28;20108;-50
2022/04/04 03:37:27;;;;;;;11.57;7.13;;;;;;;-1.83;80.47;99499.00;5010963;28;20053;-52
2022/04/04 03:39:52;;;;;;;9.25;7.78;;;;;;;-1.82;80.26;99497.22;4998384;28;20034;-51
2022/04/04 03:42:19;;;;;;;11.18;8.50;;;;;;;-1.81;80.21;99497.06;4990367;28;20060;-51
2022/04/04 03:44:45;;;;;;;11.63;8.77;;;;;;;-1.75;80.02;99491.19;4996057;28;20030;-52
2022/04/04 03:47:10;;;;;;;11.07;8.82;;;;;;;-1.76;80.27;99493.97;4993646;28;20057;-52
2022/04/04 03:49:36;;;;;;;12.80;9.40;;;;;;;-1.82;80.73;99486.69;4989492;28;20030;-50
2022/04/04 03:52:02;;;;;;;15.55;10.15;;;;;;;-1.73;80.65;99483.13;4996457;28;20540;-53
2022/04/04 03:54:28;;;;;;;13.43;11.18;;;;;;;-1.78;80.58;99480.16;4998874;28;20046;-50
2022/04/04 03:56:53;;;;;;;11.35;8.70;;;;;;;-1.75;80.63;99479.84;4993559;28;20412;-50
2022/04/04 03:59:19;;;;;;;10.20;8.07;;;;;;;-1.81;81.27;99477.84;4989247;28;20038;-52
2022/04/04 04:01:44;;;;;;;9.90;6.85;;;;;;;-1.87;81.36;99486.34;4990204;28;20069;-50
2022/04/04 04:04:10;;;;;;;10.63;8.73;;;;;;;-1.93;81.70;99486.97;4994727;28;20485;-51
2022/04/04 04:06:35;;;;;;;7.20;5.68;;;;;;;-1.90;81.83;99486.66;4992423;28;20045;-51
2022/04/04 04:09:00;;;;;;;10.95;9.23;;;;;;;-1.91;82.54;99485.03;5002974;28;20045;-51
2022/04/04 04:11:26;;;;;;;15.52;9.40;;;;;;;-2.00;82.64;99479.72;4991607;28;20042;-50
2022/04/04 04:13:51;;;;;;;14.13;11.80;;;;;;;-2.05;82.74;99471.47;4996139;28;20026;-50
2022/04/04 04:16:17;;;;;;;14.77;9.23;;;;;;;-2.06;82.86;99472.47;5000958;28;20042;-50
2022/04/04 04:18:42;;;;;;;12.05;8.15;;;;;;;-2.07;82.95;99465.56;4989261;28;20132;-52
2022/04/04 04:21:09;;;;;;;10.48;7.80;;;;;;;-2.12;83.32;99467.84;4998318;28;20085;-53
2022/04/04 04:23:36;;;;;;;8.80;7.47;;;;;;;-2.11;83.07;99464.22;4993440;28;20034;-51
2022/04/04 04:26:02;;;;;;;14.57;11.38;;;;;;;-2.17;83.62;99459.59;4994909;28;20214;-51
2022/04/04 04:28:27;;;;;;;17.40;11.38;;;;;;;-2.14;83.81;99461.09;4996725;28;20057;-51
2022/04/04 04:30:53;;;;;;;14.18;11.13;;;;;;;-2.14;83.66;99469.78;4997817;28;20045;-51
2022/04/04 04:33:18;;;;;;;13.05;9.25;;;;;;;-2.14;83.43;99461.09;4993943;28;20493;-50
2022/04/04 04:35:44;;;;;;;17.40;11.73;;;;;;;-2.19;83.66;99466.81;4989598;28;20065;-51
2022/04/04 04:38:09;;;;;;;13.23;9.00;;;;;;;-2.19;84.31;99461.56;4990463;28;20026;-50
2022/04/04 04:40:35;;;;;;;13.73;8.23;;;;;;;-2.17;83.79;99465.66;4994831;28;20030;-51
2022/04/04 04:43:00;;;;;;;17.38;11.73;;;;;;;-2.17;83.93;99459.59;4994715;28;20026;-53
2022/04/04 04:45:26;;;;;;;14.35;8.82;;;;;;;-2.15;84.17;99459.44;4998674;28;20151;-52
2022/04/04 04:47:51;;;;;;;12.77;10.60;;;;;;;-2.17;84.16;99455.16;4996835;28;20044;-50
2022/04/04 04:50:18;;;;;;;13.20;10.15;;;;;;;-2.21;84.47;99442.50;4994046;28;20460;-52
2022/04/04 04:52:45;;;;;;;16.05;11.25;;;;;;;-2.15;84.29;99441.88;4989235;28;20045;-53
2022/04/04 04:55:10;;;;;;;16.02;11.38;;;;;;;-2.06;84.30;99440.94;4993192;28;20092;-52
2022/04/04 04:57:36;;;;;;;14.25;9.93;;;;;;;-2.08;84.83;99435.00;4997921;28;20133;-52
2022/04/04 05:00:03;;;;;;;13.57;10.32;;;;;;;-2.13;84.61;99429.41;4994991;28;20461;-53
2022/04/04 05:02:29;;;;;;;18.20;12.80;;;;;;;-2.11;84.53;99435.34;4993254;28;20022;-51
2022/04/04 05:04:54;;;;;;;9.20;7.32;;;;;;;-2.08;84.48;99431.56;4994451;28;20093;-53
2022/04/04 05:07:20;;;;;;;13.48;9.57;;;;;;;-2.09;84.46;99422.88;4988792;28;20046;-53
2022/04/04 05:09:45;;;;;;;18.52;11.35;;;;;;;-2.07;84.46;99422.69;4996020;28;20389;-50
2022/04/04 05:12:11;;;;;;;14.38;10.35;;;;;;;-2.11;84.79;99427.44;4992908;28;20386;-52
2022/04/04 05:14:37;;;;;;;12.02;8.90;;;;;;;-2.11;84.56;99422.19;4993630;28;20534;-51
2022/04/04 05:17:04;;;;;;;42.50;10.68;;;;;;;-2.07;84.58;99417.44;4994384;28;20532;-51
2022/04/04 05:19:30;;;;;;;14.43;11.07;;;;;;;-2.06;84.60;99424.38;4992383;28;20073;-49
2022/04/04 05:21:56;;;;;;;13.55;8.90;;;;;;;-2.02;84.23;99420.41;4998038;28;20144;-52
2022/04/04 05:24:21;;;;;;;12.32;8.68;;;;;;;-2.02;84.17;99421.28;4999706;28;20376;-52
2022/04/04 05:26:47;;;;;;;18.77;12.20;;;;;;;-2.02;84.24;99420.41;4994772;28;20085;-49
2022/04/04 05:29:12;;;;;;;13.57;9.35;;;;;;;-1.97;84.40;99429.50;4991791;28;20067;-52
2022/04/04 05:31:38;;;;;;;17.63;12.85;;;;;;;-1.96;83.81;99420.63;4988767;28;20130;-50
2022/04/04 05:34:07;;;;;;;19.63;14.13;;;;;;;-1.94;84.11;99419.66;4993186;28;20034;-52
2022/04/04 05:36:33;;;;;;;13.23;8.52;;;;;;;-1.94;83.83;99419.66;4992492;28;20042;-49
2022/04/04 05:38:59;;;;;;;15.15;10.95;;;;;;;-1.87;84.18;99421.50;4994794;28;20030;-53
2022/04/04 05:41:24;;;;;;;19.27;11.93;;;;;;;-1.74;83.81;99421.88;4987587;28;20054;-50
2022/04/04 05:43:50;;;;;;;15.82;10.68;;;;;;;-1.78;83.22;99417.09;4988065;28;20031;-49
2022/04/04 05:46:16;;;;;;;17.80;11.68;;;;;;;-1.68;83.24;99417.78;4985980;28;20038;-53
2022/04/04 05:48:41;;;;;;;15.02;9.98;;;;;;;-1.59;82.88;99411.59;4988432;28;20468;-50
2022/04/04 05:51:08;;;;;;;22.48;13.63;;;;;;;-1.37;82.00;99414.63;4995305;28;20092;-51
2022/04/04 05:53:33;;;;;;;14.98;11.05;;;;;;;-0.82;80.22;99408.75;4993594;28;20349;-52
2022/04/04 05:55:59;;;;;;;16.58;11.13;;;;;;;-0.84;79.38;99409.91;4992790;28;20054;-52
2022/04/04 05:58:25;;;;;;;8.23;6.07;;;;;;;-0.69;79.03;99397.72;4995529;28;20032;-52
2022/04/04 06:00:51;;;;;;;19.50;13.35;;;;;;;-0.24;77.21;99409.50;4999035;28;20046;-53
2022/04/04 06:03:18;;;;;;;15.20;7.95;;;;;;;0.13;74.96;99416.81;4995276;28;20133;-51
2022/04/04 06:05:45;;;;;;;21.33;11.48;;;;;;;0.62;73.64;99418.38;4991264;28;20157;-50
2022/04/04 06:08:10;;;;;;;18.45;11.90;;;;;;;0.80;72.95;99404.91;5003292;28;20041;-51
2022/04/04 06:10:36;;;;;;;13.80;11.13;;;;;;;0.62;72.71;99402.56;4996368;28;20492;-52
2022/04/04 06:13:01;;;;;;;15.10;11.10;;;;;;;0.63;73.01;99405.03;4992717;28;20042;-49
2022/04/04 06:15:27;;;;;;;14.88;10.70;;;;;;;1.50;70.29;99407.34;5001571;28;20373;-55
2022/04/04 06:17:52;;;;;;;15.38;10.68;;;;;;;0.88;71.50;99402.25;4988559;28;20461;-50
2022/04/04 06:20:18;;;;;;;14.05;10.25;;;;;;;0.45;73.61;99396.56;4993542;28;20862;-50
2022/04/04 06:22:43;;;;;;;15.95;11.70;;;;;;;0.73;72.30;99388.97;4994185;28;20041;-52
2022/04/04 06:25:10;;;;;;;14.20;9.23;;;;;;;0.39;73.13;99399.88;4992419;28;20069;-51
2022/04/04 06:27:36;;;;;;;13.48;10.65;;;;;;;0.17;74.30;99393.56;4994107;28;20384;-51
2022/04/04 06:30:05;;;;;;;17.58;12.60;;;;;;;0.07;75.21;99382.38;4988089;28;20030;-50
2022/04/04 06:32:30;;;;;;;17.17;12.90;;;;;;;0.80;73.17;99389.09;4991612;28;20037;-50
2022/04/04 06:34:56;;;;;;;17.52;13.23;;;;;;;1.08;72.17;99390.22;4989503;28;20035;-56
2022/04/04 06:37:22;;;;;;;17.88;11.65;;;;;;;1.17;71.28;99392.78;4991756;28;20050;-51
2022/04/04 06:39:47;;;;;;;13.00;9.80;;;;;;;1.13;71.12;99391.50;4991309;28;20411;-52
2022/04/04 06:42:14;;;;;;;18.23;12.43;;;;;;;1.11;71.25;99385.59;4988246;28;20516;-53
2022/04/04 06:44:39;;;;;;;16.67;11.63;;;;;;;2.07;69.16;99383.94;4990799;28;20061;-53
2022/04/04 06:47:05;;;;;;;14.20;9.68;;;;;;;2.20;66.96;99386.78;4990504;28;20038;-51
2022/04/04 06:49:30;;;;;;;16.50;11.23;;;;;;;3.37;63.29;99378.59;4989682;28;20050;-51
2022/04/04 06:51:56;;;;;;;16.52;11.48;;;;;;;3.57;62.76;99372.63;4994025;28;20428;-52
2022/04/04 06:54:22;;;;;;;13.45;10.38;;;;;;;3.38;62.92;99367.00;4993538;28;20041;-50
2022/04/04 06:56:49;;;;;;;15.68;10.68;;;;;;;3.86;62.01;99376.88;4993853;28;20054;-52
2022/04/04 06:59:16;;;;;;;19.35;10.85;;;;;;;3.99;59.31;99376.13;4991380;28;20069;-52
2022/04/04 07:01:43;;;;;;;14.27;11.32;;;;;;;4.69;58.68;99376.81;4992031;28;20132;-50
2022/04/04 07:04:11;;;;;;;15.60;11.48;;;;;;;5.04;57.45;99360.75;4985612;28;20390;-52
2022/04/04 07:06:37;;;;;;;14.18;10.73;;;;;;;4.41;58.10;99368.97;4990251;28;20046;-51
2022/04/04 07:09:02;;;;;;;18.65;11.20;;;;;;;4.50;58.88;99363.31;4990716;28;20038;-52
2022/04/04 07:11:29;;;;;;;15.85;10.77;;;;;;;4.35;58.49;99360.00;4991362;28;20044;-53
2022/04/04 07:13:58;;;;;;;12.60;9.65;;;;;;;3.93;59.08;99355.72;4994303;28;20106;-51
2022/04/04 07:16:25;;;;;;;16.92;11.70;;;;;;;4.70;56.87;99351.94;4997055;28;20074;-50
2022/04/04 07:18:51;;;;;;;15.18;11.38;;;;;;;4.90;56.58;99352.78;4990541;28;20062;-52
2022/04/04 07:21:16;;;;;;;16.08;11.32;;;;;;;4.18;58.47;99346.25;4990869;28;20043;-49
2022/04/04 07:23:42;;;;;;;14.32;10.82;;;;;;;6.16;55.48;99338.50;4993177;28;20186;-51
2022/04/04 07:26:07;;;;;;;16.20;10.82;;;;;;;5.25;55.39;99339.31;4998014;28;20064;-49
2022/04/04 07:28:38;;;;;;;13.80;10.25;;;;;;;4.66;57.09;99340.06;4997715;28;20309;-50
2022/04/04 07:31:06;;;;;;;14.82;10.75;;;;;;;5.14;56.39;99337.25;4997528;28;20073;-52
2022/04/04 07:33:31;;;;;;;13.70;11.32;;;;;;;4.88;57.61;99338.88;4990560;28;20030;-49
2022/04/04 07:35:57;;;;;;;16.13;11.95;;;;;;;5.61;56.09;99322.88;4993730;28;20412;-50
2022/04/04 07:38:22;;;;;;;17.00;9.93;;;;;;;5.57;56.74;99327.00;4996772;28;20026;-51
2022/04/04 07:40:48;;;;;;;15.82;10.52;;;;;;;6.08;54.97;99322.78;5000340;28;20054;-51
2022/04/04 07:43:13;;;;;;;15.10;10.05;;;;;;;6.33;53.72;99320.22;4995866;28;20034;-52
2022/04/04 07:45:39;;;;;;;16.20;10.85;;;;;;;6.36;52.66;99309.13;4998107;28;20042;-50
2022/04/04 07:48:05;;;;;;;12.80;9.27;;;;;;;6.31;52.74;99324.13;4993162;28;20121;-49
2022/04/04 07:50:30;;;;;;;12.25;9.60;;;;;;;6.05;53.80;99310.72;4996703;28;20566;-52
2022/04/04 07:52:56;;;;;;;14.63;10.48;;;;;;;6.38;53.99;99308.94;4990818;28;20061;-49
2022/04/04 07:55:21;;;;;;;16.70;10.38;;;;;;;6.73;53.99;99303.19;4992732;28;20042;-52
2022/04/04 07:57:47;;;;;;;14.13;10.55;;;;;;;6.32;53.74;99302.63;4993618;28;20081;-51
2022/04/04 08:00:17;;;;;;;12.50;9.48;;;;;;;7.35;52.52;99296.13;4994709;28;20018;-51
2022/04/04 08:02:43;;;;;;;12.93;10.23;;;;;;;6.78;53.71;99295.38;4992830;28;20115;-52
2022/04/04 08:05:09;;;;;;;13.25;9.25;;;;;;;6.70;55.60;99296.47;4995552;28;20448;-53
2022/04/04 08:07:36;;;;;;;16.25;9.00;;;;;;;7.36;52.43;99287.09;4994794;28;20059;-50
2022/04/04 08:10:01;;;;;;;13.02;8.82;;;;;;;7.43;51.44;99293.19;5000537;28;20044;-52
2022/04/04 08:12:27;;;;;;;14.63;9.82;;;;;;;7.71;50.07;99286.53;4996356;28;20026;-57
2022/04/04 08:14:52;;;;;;;11.27;9.07;;;;;;;6.51;53.36;99282.22;4987131;28;20029;-49
2022/04/04 08:17:18;;;;;;;13.95;9.32;;;;;;;6.87;52.84;99273.59;5001663;28;20464;-54
2022/04/04 08:19:43;;;;;;;11.45;8.65;;;;;;;7.24;51.45;99267.50;4995059;28;20405;-52
2022/04/04 08:22:09;;;;;;;12.20;8.20;;;;;;;7.46;51.19;99268.75;4992670;28;20049;-51
2022/04/04 08:24:34;;;;;;;13.00;8.50;;;;;;;7.78;51.29;99265.94;4991559;28;20033;-51
2022/04/04 08:27:00;;;;;;;11.20;7.90;;;;;;;7.97;49.08;99267.56;4993026;28;20049;-55
2022/04/04 08:29:25;;;;;;;13.25;7.95;;;;;;;7.37;51.63;99259.41;4989067;28;20396;-54
2022/04/04 08:31:50;;;;;;;11.73;8.60;;;;;;;7.23;52.18;99255.22;4991816;28;20512;-51
2022/04/04 08:34:16;;;;;;;11.45;8.93;;;;;;;6.86;53.04;99255.13;4997788;28;20029;-54
2022/04/04 08:36:41;;;;;;;12.73;7.90;;;;;;;6.01;54.13;99252.81;4989729;28;20046;-52
2022/04/04 08:39:07;;;;;;;10.80;7.93;;;;;;;6.90;53.61;99238.50;4989705;28;20473;-53
2022/04/04 08:41:33;;;;;;;11.40;8.25;;;;;;;7.07;53.51;99237.97;4992215;28;20382;-52
2022/04/04 08:44:03;;;;;;;9.63;6.78;;;;;;;5.33;55.27;99230.13;4994227;28;20045;-54
2022/04/04 08:46:29;;;;;;;12.13;7.60;;;;;;;6.00;53.78;99240.56;4993391;28;20053;-51
2022/04/04 08:48:58;;;;;;;12.15;8.07;;;;;;;6.76;54.78;99225.50;4975762;28;20034;-55
2022/04/04 08:51:26;;;;;;;16.05;9.15;;;;;;;7.11;53.09;99221.31;4996654;28;20057;-51
2022/04/04 08:53:52;;;;;;;18.30;9.38;;;;;;;7.37;51.17;99213.28;4986642;28;20470;-52
2022/04/04 08:56:18;;;;;;;12.65;8.13;;;;;;;8.02;49.15;99223.38;4988129;28;20042;-51
2022/04/04 08:58:43;;;;;;;13.77;7.22;;;;;;;8.08;47.39;99207.25;4977950;28;20038;-50
2022/04/04 09:01:09;;;;;;;11.00;7.20;;;;;;;7.41;49.71;99199.25;4994555;28;20043;-53
2022/04/04 09:03:34;;;;;;;16.17;8.07;;;;;;;8.69;47.19;99189.31;4997145;28;20034;-52
2022/04/04 09:06:01;;;;;;;12.20;7.30;;;;;;;8.27;47.94;99189.31;4996026;28;20069;-51
2022/04/04 09:08:28;;;;;;;12.75;7.47;;;;;;;9.22;46.01;99192.91;4997452;28;20046;-51
2022/04/04 09:10:56;;;;;;;12.00;7.07;;;;;;;9.67;45.60;99190.38;4994659;28;20045;-54
2022/04/04 09:13:22;;;;;;;11.52;7.05;;;;;;;9.49;45.49;99171.81;4996604;28;20030;-52
2022/04/04 09:16:08;;;;;;;12.85;7.80;;;;;;;9.13;46.22;99167.56;4996070;28;20139;-55
2022/04/04 09:18:36;;;;;;;13.23;7.68;;;;;;;9.57;45.15;99171.44;4999035;28;20038;-54
2022/04/04 09:21:05;;;;;;;9.98;6.93;;;;;;;8.10;47.53;99153.63;4997384;28;20045;-52
2022/04/04 09:23:46;;;;;;;8.35;6.43;;;;;;;7.99;48.16;99147.22;4992029;28;20022;-52
2022/04/04 09:26:33;;;;;;;9.70;7.15;;;;;;;9.13;46.94;99147.00;4994839;28;20050;-51
2022/04/04 09:29:07;;;;;;;10.05;6.78;;;;;;;9.22;46.75;99150.13;4997168;28;20088;-52
2022/04/04 09:31:32;;;;;;;7.55;5.28;;;;;;;8.28;47.91;99132.19;5001027;28;20391;-52
2022/04/04 09:34:07;;;;;;;13.65;7.25;;;;;;;8.66;48.49;99124.81;4983702;28;20080;-52
2022/04/04 09:36:32;;;;;;;9.90;7.15;;;;;;;8.99;46.72;99134.94;4994588;28;20045;-53
2022/04/04 09:39:08;;;;;;;11.57;7.18;;;;;;;8.71;48.21;99127.63;4992872;28;20715;-53
2022/04/04 09:41:34;;;;;;;18.00;8.85;;;;;;;8.17;48.53;99120.47;4990511;28;20042;-51
2022/04/04 09:44:05;;;;;;;20.85;15.02;;;;;;;7.88;48.74;99119.44;4992977;28;20068;-52
2022/04/04 09:46:34;;;;;;;10.32;6.75;;;;;;;8.13;48.20;99121.94;4996566;28;20056;-53
2022/04/04 09:49:20;;;;;;;11.65;8.38;;;;;;;8.73;47.45;99118.31;4998428;28;20030;-54
2022/04/04 09:51:50;;;;;;;17.83;9.43;;;;;;;8.68;47.37;99104.03;4997697;28;20401;-53
2022/04/04 09:54:20;;;;;;;11.77;8.70;;;;;;;7.97;47.96;99106.59;5001070;28;20443;-51
2022/04/04 09:56:50;;;;;;;12.60;8.60;;;;;;;8.52;47.27;99108.22;4997909;28;20112;-53
2022/04/04 09:59:16;;;;;;;14.55;7.15;;;;;;;8.09;47.28;99096.78;4995350;28;20033;-54
2022/04/04 10:01:43;;;;;;;15.48;7.90;;;;;;;8.19;47.14;99088.19;5003281;28;20144;-52
2022/04/04 10:04:09;;;;;;;13.77;7.00;;;;;;;8.42;46.81;99087.44;4994479;28;20041;-53
2022/04/04 10:06:34;;;;;;;11.05;7.13;;;;;;;8.35;46.68;99084.84;4997683;28;20129;-53
2022/04/04 10:09:00;;;;;;;11.77;8.10;;;;;;;9.26;45.27;99081.72;4990893;28;20042;-52
2022/04/04 10:11:26;;;;;;;15.00;7.43;;;;;;;9.89;44.55;99072.75;4994234;28;20047;-51
2022/04/04 10:13:55;;;;;;;8.77;6.68;;;;;;;10.38;44.08;99055.34;4994136;28;20561;-49
2022/04/04 10:16:24;;;;;;;9.43;6.65;;;;;;;9.03;45.36;99056.69;4992090;28;20463;-52
2022/04/04 10:18:50;;;;;;;11.50;8.18;;;;;;;8.69;46.36;99049.56;4993237;28;20029;-51
2022/04/04 10:21:16;;;;;;;11.73;8.43;;;;;;;9.53;47.10;99049.88;4979696;28;20480;-50
2022/04/04 10:23:41;;;;;;;14.77;6.65;;;;;;;8.40;47.11;99046.78;4982265;28;20026;-52
2022/04/04 10:26:07;;;;;;;12.90;7.72;;;;;;;8.40;47.05;99044.94;4979705;28;20052;-49
2022/04/04 10:28:38;;;;;;;10.73;7.28;;;;;;;8.19;47.56;99035.63;4973460;28;20047;-54
2022/04/04 10:31:20;;;;;;;15.05;7.88;;;;;;;8.40;47.53;99026.22;4988236;28;20069;-50
2022/04/04 10:33:47;;;;;;;8.77;6.25;;;;;;;8.16;47.58;99020.06;4995596;28;20117;-54
2022/04/04 10:36:20;;;;;;;10.07;6.82;;;;;;;7.94;46.99;99019.81;4988314;28;20057;-52
2022/04/04 10:38:46;;;;;;;11.77;7.15;;;;;;;7.86;47.39;99017.47;4986850;28;20037;-54
2022/04/04 10:41:15;;;;;;;11.50;7.70;;;;;;;7.91;47.78;99014.94;4985573;28;20574;-53
2022/04/04 10:43:48;;;;;;;11.30;6.10;;;;;;;7.85;49.37;99015.03;4986014;28;20141;-50
2022/04/04 10:46:15;;;;;;;9.13;6.75;;;;;;;7.56;48.90;98999.69;4986092;28;20516;-53
2022/04/04 10:48:42;;;;;;;9.23;5.72;;;;;;;7.50;48.35;98984.56;4985581;28;20049;-50
2022/04/04 10:51:12;;;;;;;12.43;6.20;;;;;;;7.67;48.16;98999.94;4993762;28;20061;-54
2022/04/04 10:53:41;;;;;;;7.45;5.75;;;;;;;7.68;48.08;98988.19;5001644;28;20221;-53
2022/04/04 10:56:09;;;;;;;10.10;5.80;;;;;;;7.67;47.71;98970.59;5000223;28;20042;-53
2022/04/04 10:58:34;;;;;;;9.18;5.78;;;;;;;7.74;48.70;98972.09;4995564;28;20377;-53
2022/04/04 11:01:04;;;;;;;10.20;5.22;;;;;;;7.34;48.42;98971.91;4977720;28;20038;-52
2022/04/04 11:03:36;;;;;;;7.75;5.40;;;;;;;7.41;49.16;98972.59;5000987;28;20049;-52
2022/04/04 11:09:14;;;;;;;8.90;4.97;;;;;;;7.31;48.59;98956.34;5002121;28;20053;-51
2022/04/04 11:11:41;;;;;;;7.65;5.03;;;;;;;7.18;48.38;98959.22;4992228;28;20536;-52
2022/04/04 11:14:06;;;;;;;9.38;5.30;;;;;;;7.33;49.34;98964.94;4990942;28;20049;-52
2022/04/04 11:17:07;;;;;;;8.80;4.60;;;;;;;7.64;48.28;98942.50;4987608;28;20050;-52
2022/04/04 11:19:47;;;;;;;10.05;5.80;;;;;;;7.48;49.03;98951.97;4994363;28;20058;-54
2022/04/04 11:22:17;;;;;;;10.50;5.15;;;;;;;7.26;48.16;98929.56;4994681;28;20045;-52
2022/04/04 11:24:43;;;;;;;7.47;4.80;;;;;;;7.55;49.61;98943.88;5001161;28;20408;-53
2022/04/04 11:27:09;;;;;;;10.15;5.07;;;;;;;7.50;48.87;98941.91;4998412;28;20050;-51
2022/04/04 11:29:38;;;;;;;10.20;4.88;;;;;;;7.31;50.69;98935.84;4995274;28;20057;-53
2022/04/04 11:32:04;;;;;;;6.85;4.68;;;;;;;6.91;49.13;98928.41;4997000;28;20125;-53